Ana Sayfa
METAR-TAF:

METAR-TAF

Havaalanları :

Beslan Havalimanı

Vladikavkaz, Rusya

Enlem: 43-12-18N, Boylam: 044-36-24E, yükseklik: 510 m

Güncel hava durumu gözlemi

Rapor saat 11:00 UTC de 47 dakika önce yapıldı.
Rüzgar batıdan 8 kt, güney/güneybatı ve kuzeybatı arasında değişken
Sıcaklık 16°C
Nem 25%
Basınç 1026 hPa
Görüş mesafesi 10 km veya daha fazla
2600 ft yükseklikte parçalı çok bulutlu

METAR: URMO 241100Z 26004MPS 200V310 9999 BKN026 16/M04 Q1026 R09/010070 NOSIG RMK QFE725/0967

Saat: 14:47 (11:47 UTC)

Tahmin

Rapor saat 11:00 UTC de 47 dakika önce yapıldı.
Ayın 24'si saat 12 UTC'den ayın 24'si saat 21 UTC'ye kadar geçerli Tahmin
Rüzgar batıdan 6 kt ve 16 kt'a kadar ani rüzgarlar
Görüş mesafesi 10 km veya daha fazla
2000 ft yükseklikte parçalı çok bulutlu
Geçici
ayın 24'si saat 12 UTC'den ayın 24'si saat 18 UTC'ye kadar
Rüzgar kuzey/kuzeydoğudan 6 kt ve 16 kt'a kadar ani rüzgarlar

TAF: URMO 241100Z 2412/2421 26003G08MPS 9999 BKN020 TEMPO 2412/2418 03003G08MPS

4.000'den fazla havaalanı için hava durumu gözlemleri ve tahminleri (METAR ve TAF raporları).

Kullanılabilir istasyonlar harita üzerinde sarı ve kırmızı noktalarla gösterilir.

İstasyonun adını görmek için fareyi noktanın üzerinde gezdirin.

Sonrasında hava gözlem ve tahminlerini görmek için tıklayın.

Haritayı değiştirmek için: yaklaştırmak için siyah artı işaretli yeşil düğmeye ve uzaklaştırmak için de eksi işaretli düğmeye hızla tıklayın; bitişik haritalar için yeşil okları kullanın.


METAR-TAF: